createdAt,value
2018-07-08T00:03:47.932Z,13.60
2018-07-08T00:06:16.080Z,13.50
2018-07-08T00:08:44.259Z,13.60
2018-07-08T00:11:12.557Z,13.60
2018-07-08T00:13:40.752Z,13.50
2018-07-08T00:16:08.902Z,13.40
2018-07-08T00:18:36.953Z,13.30
2018-07-08T00:21:05.263Z,13.40
2018-07-08T00:23:33.451Z,13.30
2018-07-08T00:26:01.668Z,13.30
2018-07-08T00:28:29.779Z,13.30
2018-07-08T00:30:57.929Z,13.20
2018-07-08T00:33:26.125Z,13.20
2018-07-08T00:35:54.296Z,13.20
2018-07-08T00:38:22.360Z,13.20
2018-07-08T00:40:50.540Z,13.20
2018-07-08T00:43:18.720Z,13.10
2018-07-08T00:45:47.004Z,13.10
2018-07-08T00:48:15.164Z,13.10
2018-07-08T00:50:43.344Z,13.10
2018-07-08T00:53:11.440Z,13.10
2018-07-08T00:55:39.489Z,13.10
2018-07-08T00:58:07.640Z,13.00
2018-07-08T01:03:06.670Z,13.00
2018-07-08T01:05:35.073Z,13.00
2018-07-08T01:08:03.677Z,13.00
2018-07-08T01:10:31.941Z,13.00
2018-07-08T01:13:00.652Z,13.00
2018-07-08T01:15:28.797Z,13.00
2018-07-08T01:17:57.056Z,13.00
2018-07-08T01:20:25.344Z,13.00
2018-07-08T01:22:53.823Z,13.10
2018-07-08T01:25:33.075Z,13.10
2018-07-08T01:28:01.139Z,13.10
2018-07-08T01:30:29.412Z,13.00
2018-07-08T01:32:57.594Z,13.00
2018-07-08T01:35:25.777Z,13.00
2018-07-08T01:37:53.775Z,13.00
2018-07-08T01:40:22.026Z,13.00
2018-07-08T01:42:50.096Z,13.00
2018-07-08T01:45:18.148Z,13.00
2018-07-08T01:47:46.351Z,13.00
2018-07-08T01:50:14.412Z,12.90
2018-07-08T01:52:42.504Z,12.90
2018-07-08T01:55:10.737Z,12.80
2018-07-08T01:57:38.846Z,12.90
2018-07-08T02:00:07.210Z,12.90
2018-07-08T02:02:35.295Z,12.90
2018-07-08T02:05:03.455Z,12.80
2018-07-08T02:07:31.618Z,12.80
2018-07-08T02:09:59.847Z,12.80
2018-07-08T02:12:27.985Z,12.80
2018-07-08T02:14:56.268Z,12.80
2018-07-08T02:17:24.424Z,12.80
2018-07-08T02:19:52.632Z,12.80
2018-07-08T02:22:20.797Z,12.80
2018-07-08T02:24:49.048Z,12.80
2018-07-08T02:27:17.364Z,12.70
2018-07-08T02:29:45.513Z,12.60
2018-07-08T02:32:13.704Z,12.60
2018-07-08T02:34:42.299Z,12.60
2018-07-08T02:37:10.552Z,12.50
2018-07-08T02:39:38.827Z,12.50
2018-07-08T02:42:07.033Z,12.50
2018-07-08T02:44:35.312Z,12.50
2018-07-08T02:47:03.549Z,12.50
2018-07-08T02:52:00.005Z,12.40
2018-07-08T02:54:28.104Z,12.40
2018-07-08T02:56:56.181Z,12.40
2018-07-08T02:59:24.257Z,12.30
2018-07-08T03:01:52.319Z,12.30
2018-07-08T03:04:20.510Z,12.30
2018-07-08T03:06:48.543Z,12.40
2018-07-08T03:11:44.400Z,12.40
2018-07-08T03:14:12.497Z,12.40
2018-07-08T03:16:40.629Z,12.50
2018-07-08T03:21:36.809Z,12.50
2018-07-08T03:24:04.854Z,12.50
2018-07-08T03:26:33.052Z,12.50
2018-07-08T03:29:01.234Z,12.40
2018-07-08T03:31:29.316Z,12.40
2018-07-08T03:33:57.318Z,12.40
2018-07-08T03:36:25.545Z,12.50
2018-07-08T03:38:53.604Z,12.50
2018-07-08T03:41:21.892Z,12.40
2018-07-08T03:43:49.984Z,12.50
2018-07-08T03:46:18.020Z,12.50
2018-07-08T03:51:13.944Z,12.50
2018-07-08T03:53:41.968Z,12.50
2018-07-08T03:56:10.229Z,12.60
2018-07-08T03:58:38.333Z,12.70
2018-07-08T04:01:06.480Z,12.90
2018-07-08T04:03:34.687Z,13.30
2018-07-08T04:06:02.912Z,14.10
2018-07-08T04:10:58.853Z,14.80
2018-07-08T04:18:22.864Z,15.00
2018-07-08T04:23:19.054Z,15.80
2018-07-08T04:25:47.196Z,16.20
2018-07-08T04:28:15.302Z,16.30
2018-07-08T04:30:43.375Z,16.60
2018-07-08T04:33:11.407Z,17.20
2018-07-08T04:38:07.398Z,18.90
2018-07-08T04:40:35.427Z,19.20
2018-07-08T04:43:03.723Z,19.60
2018-07-08T04:45:31.980Z,20.00
2018-07-08T04:50:28.056Z,20.30
2018-07-08T04:52:56.147Z,20.10
2018-07-08T04:55:24.285Z,19.80
2018-07-08T04:57:52.352Z,19.50
2018-07-08T05:00:20.560Z,19.20
2018-07-08T05:02:48.633Z,18.70
2018-07-08T05:05:16.667Z,17.90
2018-07-08T05:10:12.628Z,17.40
2018-07-08T05:12:40.683Z,17.20
2018-07-08T05:15:08.930Z,17.30
2018-07-08T05:17:37.157Z,17.30
2018-07-08T05:20:05.344Z,17.40
2018-07-08T05:22:33.528Z,17.70
2018-07-08T05:25:01.689Z,18.30
2018-07-08T05:27:29.868Z,18.40
2018-07-08T05:29:57.927Z,18.60
2018-07-08T05:32:26.013Z,19.10
2018-07-08T05:34:54.152Z,18.90
2018-07-08T05:39:50.119Z,18.70
2018-07-08T05:42:18.313Z,18.60
2018-07-08T05:44:46.402Z,18.90
2018-07-08T05:47:14.427Z,19.40
2018-07-08T05:49:42.767Z,20.10
2018-07-08T05:52:11.013Z,20.70
2018-07-08T05:54:39.056Z,21.10
2018-07-08T05:57:07.277Z,21.10
2018-07-08T05:59:35.311Z,20.40
2018-07-08T06:02:03.612Z,20.70
2018-07-08T06:04:31.899Z,20.70
2018-07-08T06:07:00.144Z,20.60
2018-07-08T06:09:28.340Z,20.40
2018-07-08T06:11:56.391Z,20.90
2018-07-08T06:14:24.750Z,21.30
2018-07-08T06:19:21.070Z,20.20
2018-07-08T06:21:49.223Z,20.10
2018-07-08T06:24:17.387Z,20.00
2018-07-08T06:26:45.608Z,20.00
2018-07-08T06:29:13.871Z,19.90
2018-07-08T06:31:41.962Z,19.90
2018-07-08T06:34:10.053Z,19.80
2018-07-08T06:39:06.455Z,19.60
2018-07-08T06:41:34.625Z,19.80
2018-07-08T06:44:02.743Z,20.00
2018-07-08T06:46:30.982Z,20.50
2018-07-08T06:48:59.015Z,20.80
2018-07-08T06:53:55.100Z,20.90
2018-07-08T06:56:23.194Z,21.20
2018-07-08T06:58:51.304Z,21.00
2018-07-08T07:03:47.336Z,21.30
2018-07-08T07:06:15.538Z,21.10
2018-07-08T07:08:43.644Z,21.00
2018-07-08T07:11:11.679Z,21.40
2018-07-08T07:13:39.872Z,21.50
2018-07-08T07:16:07.951Z,21.70
2018-07-08T07:18:36.374Z,21.60
2018-07-08T07:21:04.678Z,21.80
2018-07-08T07:23:32.961Z,21.90
2018-07-08T07:28:29.127Z,22.10
2018-07-08T07:30:57.402Z,22.10
2018-07-08T07:33:25.608Z,22.00
2018-07-08T07:35:53.858Z,21.80
2018-07-08T07:38:22.226Z,21.90
2018-07-08T07:40:50.813Z,22.00
2018-07-08T07:45:48.250Z,22.30
2018-07-08T07:50:44.983Z,22.50
2018-07-08T07:53:13.204Z,22.80
2018-07-08T07:55:41.320Z,22.70
2018-07-08T07:58:09.478Z,22.50
2018-07-08T08:00:37.669Z,22.50
2018-07-08T08:03:06.649Z,22.40
2018-07-08T08:05:34.761Z,22.30
2018-07-08T08:08:02.916Z,22.20
2018-07-08T08:10:31.000Z,22.20
2018-07-08T08:12:59.179Z,22.20
2018-07-08T08:15:27.534Z,22.40
2018-07-08T08:17:55.832Z,22.50
2018-07-08T08:20:24.092Z,22.70
2018-07-08T08:22:52.297Z,22.40
2018-07-08T08:25:20.346Z,22.20
2018-07-08T08:27:48.512Z,22.20
2018-07-08T08:30:16.739Z,22.50
2018-07-08T08:32:45.056Z,22.70
2018-07-08T08:35:14.369Z,22.80
2018-07-08T08:37:43.644Z,22.60
2018-07-08T08:42:40.544Z,23.00
2018-07-08T08:45:09.816Z,23.20
2018-07-08T08:47:38.138Z,23.10
2018-07-08T08:50:07.212Z,23.20
2018-07-08T08:52:35.575Z,23.50
2018-07-08T08:57:47.127Z,23.80
2018-07-08T09:00:16.570Z,23.90
2018-07-08T09:02:44.692Z,23.90
2018-07-08T09:05:12.777Z,23.90
2018-07-08T09:07:43.374Z,24.00
2018-07-08T09:10:12.811Z,24.00
2018-07-08T09:12:41.611Z,24.10
2018-07-08T09:17:39.456Z,23.90
2018-07-08T09:20:07.805Z,24.20
2018-07-08T09:22:35.925Z,24.20
2018-07-08T09:25:04.532Z,24.30
2018-07-08T09:27:32.673Z,24.60
2018-07-08T09:32:30.365Z,24.10
2018-07-08T09:34:59.284Z,24.10
2018-07-08T09:37:27.569Z,24.20
2018-07-08T09:39:56.013Z,24.60
2018-07-08T09:42:24.104Z,25.20
2018-07-08T09:44:52.298Z,25.20
2018-07-08T09:47:20.444Z,25.10
2018-07-08T09:49:48.535Z,25.00
2018-07-08T09:52:16.685Z,25.10
2018-07-08T09:54:44.776Z,25.10
2018-07-08T09:57:12.856Z,25.10
2018-07-08T09:59:41.020Z,24.90
2018-07-08T10:02:09.223Z,25.10
2018-07-08T10:04:37.315Z,25.20
2018-07-08T10:07:05.648Z,25.50
2018-07-08T10:09:33.708Z,25.40
2018-07-08T10:14:29.971Z,25.50
2018-07-08T10:16:58.064Z,25.30
2018-07-08T10:19:26.248Z,24.90
2018-07-08T10:21:54.399Z,24.40
2018-07-08T10:24:22.575Z,24.50
2018-07-08T10:27:06.427Z,24.40
2018-07-08T10:29:34.563Z,23.80
2018-07-08T10:34:30.740Z,24.20
2018-07-08T10:36:58.845Z,24.30
2018-07-08T10:39:26.993Z,24.40
2018-07-08T10:41:55.236Z,24.70
2018-07-08T10:46:51.215Z,24.70
2018-07-08T10:49:19.307Z,24.60
2018-07-08T10:51:47.795Z,24.60
2018-07-08T10:54:15.812Z,24.60
2018-07-08T10:59:11.694Z,24.30
2018-07-08T11:01:39.983Z,24.20
2018-07-08T11:04:08.132Z,24.20
2018-07-08T11:06:36.171Z,24.50
2018-07-08T11:11:32.553Z,24.70
2018-07-08T11:14:00.735Z,24.50
2018-07-08T11:16:28.999Z,24.30
2018-07-08T11:18:57.178Z,24.40
2018-07-08T11:21:25.352Z,24.70
2018-07-08T11:23:53.536Z,24.70
2018-07-08T11:26:21.949Z,24.70
2018-07-08T11:28:49.965Z,24.60
2018-07-08T11:31:18.161Z,24.30
2018-07-08T11:33:46.220Z,24.60
2018-07-08T11:36:14.385Z,24.80
2018-07-08T11:38:42.506Z,25.00
2018-07-08T11:41:10.805Z,25.10
2018-07-08T11:43:38.912Z,25.00
2018-07-08T11:48:35.000Z,25.10
2018-07-08T11:51:03.244Z,25.10
2018-07-08T11:53:31.337Z,25.10
2018-07-08T11:55:59.388Z,25.00
2018-07-08T11:58:27.487Z,24.70
2018-07-08T12:00:55.659Z,24.50
2018-07-08T12:03:23.859Z,24.10
2018-07-08T12:05:51.887Z,24.40
2018-07-08T12:08:19.951Z,24.60
2018-07-08T12:13:16.496Z,25.00
2018-07-08T12:15:44.732Z,25.40
2018-07-08T12:18:12.864Z,25.70
2018-07-08T12:20:41.188Z,25.80
2018-07-08T12:23:09.529Z,25.70
2018-07-08T12:25:37.805Z,25.60
2018-07-08T12:28:06.013Z,25.40
2018-07-08T12:30:34.072Z,25.10
2018-07-08T12:33:02.164Z,25.00
2018-07-08T12:35:30.305Z,24.80
2018-07-08T12:40:26.848Z,24.30
2018-07-08T12:45:22.903Z,25.40
2018-07-08T12:47:50.965Z,25.60
2018-07-08T12:52:46.820Z,25.30
2018-07-08T12:55:15.254Z,25.40
2018-07-08T12:57:43.376Z,25.50
2018-07-08T13:00:11.695Z,25.70
2018-07-08T13:02:39.756Z,26.00
2018-07-08T13:05:07.897Z,25.80
2018-07-08T13:07:36.105Z,25.50
2018-07-08T13:10:04.337Z,25.80
2018-07-08T13:15:01.414Z,25.60
2018-07-08T13:19:58.670Z,25.20
2018-07-08T13:27:22.914Z,25.00
2018-07-08T13:29:51.214Z,25.00
2018-07-08T13:32:19.385Z,25.20
2018-07-08T13:34:47.782Z,25.20
2018-07-08T13:37:15.939Z,25.30
2018-07-08T13:39:44.017Z,25.30
2018-07-08T13:42:12.093Z,24.90
2018-07-08T13:44:40.148Z,25.10
2018-07-08T13:47:08.338Z,25.30
2018-07-08T13:49:36.389Z,25.40
2018-07-08T14:16:16.747Z,26.00
2018-07-08T14:18:44.797Z,25.50
2018-07-08T14:21:12.912Z,25.40
2018-07-08T14:23:41.053Z,25.30
2018-07-08T14:26:09.339Z,25.50
2018-07-08T14:28:37.595Z,25.90
2018-07-08T14:33:33.804Z,25.60
2018-07-08T14:36:01.823Z,25.50
2018-07-08T14:38:30.369Z,25.60
2018-07-08T14:40:58.593Z,25.60
2018-07-08T14:58:02.341Z,26.50
2018-07-08T15:00:30.511Z,26.50
2018-07-08T15:02:58.668Z,26.50
2018-07-08T15:05:26.767Z,26.30
2018-07-08T15:07:55.038Z,26.30
2018-07-08T15:10:23.353Z,26.40
2018-07-08T15:12:51.709Z,26.30
2018-07-08T15:15:19.809Z,26.50
2018-07-08T15:17:48.091Z,26.30
2018-07-08T15:20:16.126Z,26.10
2018-07-08T15:22:44.285Z,26.00
2018-07-08T15:25:12.345Z,25.80
2018-07-08T15:27:40.544Z,26.00
2018-07-08T15:30:08.829Z,26.20
2018-07-08T15:32:36.989Z,26.30
2018-07-08T15:35:05.555Z,26.30
2018-07-08T15:37:33.859Z,26.40
2018-07-08T15:40:02.130Z,26.30
2018-07-08T15:42:30.339Z,26.50
2018-07-08T15:44:58.372Z,26.50
2018-07-08T15:47:26.601Z,26.60
2018-07-08T15:49:54.948Z,26.40
2018-07-08T15:52:23.229Z,26.40
2018-07-08T15:54:51.298Z,25.80
2018-07-08T15:57:19.460Z,25.60
2018-07-08T15:59:47.811Z,25.40
2018-07-08T16:04:43.995Z,25.60
2018-07-08T16:07:13.007Z,25.60
2018-07-08T16:09:41.182Z,25.70
2018-07-08T16:12:09.381Z,25.50
2018-07-08T16:14:37.475Z,25.30
2018-07-08T16:17:05.838Z,25.10
2018-07-08T16:19:34.449Z,24.80
2018-07-08T16:24:31.111Z,24.30
2018-07-08T16:29:27.282Z,25.00
2018-07-08T16:31:55.378Z,25.30
2018-07-08T16:34:23.736Z,26.30
2018-07-08T16:36:52.434Z,25.20
2018-07-08T16:39:20.630Z,25.10
2018-07-08T16:41:49.225Z,24.70
2018-07-08T16:44:17.366Z,24.60
2018-07-08T16:46:45.689Z,27.20
2018-07-08T16:49:13.904Z,29.10
2018-07-08T16:51:42.704Z,27.90
2018-07-08T16:54:10.819Z,28.60
2018-07-08T16:56:39.488Z,29.50
2018-07-08T16:59:07.552Z,30.10
2018-07-08T17:01:35.800Z,30.20
2018-07-08T17:06:32.060Z,28.20
2018-07-08T17:09:00.269Z,29.20
2018-07-08T17:11:29.664Z,29.90
2018-07-08T17:13:58.597Z,30.10
2018-07-08T17:16:27.379Z,30.40
2018-07-08T17:18:55.992Z,30.50
2018-07-08T17:21:26.369Z,30.40
2018-07-08T17:23:55.434Z,30.30
2018-07-08T17:26:24.667Z,30.10
2018-07-08T17:31:21.917Z,29.70
2018-07-08T17:33:50.303Z,29.90
2018-07-08T17:36:18.589Z,30.00
2018-07-08T17:38:47.620Z,30.10
2018-07-08T17:43:44.679Z,30.50
2018-07-08T17:46:13.286Z,30.40
2018-07-08T17:48:41.926Z,30.50
2018-07-08T17:51:10.715Z,30.50
2018-07-08T17:53:39.953Z,30.30
2018-07-08T17:56:08.360Z,30.10
2018-07-08T18:01:04.884Z,29.90
2018-07-08T18:03:33.211Z,30.00
2018-07-08T18:06:01.517Z,30.00
2018-07-08T18:08:29.997Z,29.70
2018-07-08T18:10:58.156Z,29.60
2018-07-08T18:13:27.325Z,29.40
2018-07-08T18:18:23.295Z,29.00
2018-07-08T18:20:51.678Z,27.90
2018-07-08T18:23:19.901Z,26.50
2018-07-08T18:25:47.220Z,26.30
2018-07-08T18:28:15.454Z,26.60
2018-07-08T18:33:11.532Z,26.70
2018-07-08T18:35:39.729Z,25.90
2018-07-08T18:38:08.296Z,24.50
2018-07-08T18:40:36.488Z,23.40
2018-07-08T18:43:04.641Z,22.70
2018-07-08T18:45:32.943Z,22.10
2018-07-08T18:48:00.986Z,21.70
2018-07-08T18:50:29.198Z,21.40
2018-07-08T18:52:57.548Z,21.10
2018-07-08T18:55:25.834Z,20.90
2018-07-08T18:57:54.013Z,20.70
2018-07-08T19:00:22.160Z,20.50
2018-07-08T19:02:50.381Z,20.30
2018-07-08T19:05:20.847Z,20.20
2018-07-08T19:07:52.867Z,20.10
2018-07-08T19:12:53.096Z,19.60
2018-07-08T19:15:21.506Z,19.20
2018-07-08T19:17:49.781Z,18.80
2018-07-08T19:20:17.925Z,18.60
2018-07-08T19:22:46.108Z,18.30
2018-07-08T19:25:14.274Z,18.10
2018-07-08T19:27:42.408Z,17.90
2018-07-08T19:30:10.532Z,17.70
2018-07-08T19:32:39.742Z,17.60
2018-07-08T19:35:07.993Z,17.50
2018-07-08T19:37:36.250Z,17.40
2018-07-08T19:42:32.537Z,17.30
2018-07-08T19:45:00.813Z,17.10
2018-07-08T19:47:29.082Z,17.00
2018-07-08T19:49:57.271Z,16.80
2018-07-08T19:52:32.412Z,16.80
2018-07-08T19:55:12.494Z,16.70
2018-07-08T19:57:51.294Z,16.60
2018-07-08T20:00:30.683Z,16.50
2018-07-08T20:03:09.077Z,16.30
2018-07-08T20:05:46.769Z,16.30
2018-07-08T20:08:15.537Z,16.20
2018-07-08T20:10:47.666Z,16.20
2018-07-08T20:15:50.056Z,16.10
2018-07-08T20:18:20.196Z,16.00
2018-07-08T20:20:50.380Z,16.00
2018-07-08T20:23:21.729Z,15.90
2018-07-08T20:25:53.043Z,15.80
2018-07-08T20:28:24.901Z,15.70
2018-07-08T20:30:56.501Z,15.70
2018-07-08T20:33:27.926Z,15.60
2018-07-08T20:37:45.314Z,15.50
2018-07-08T20:40:18.399Z,15.40
2018-07-08T20:45:22.122Z,15.30
2018-07-08T20:50:26.174Z,15.20
2018-07-08T20:52:59.027Z,15.10
2018-07-08T20:55:31.736Z,15.10
2018-07-08T20:58:03.858Z,15.10
2018-07-08T21:00:35.556Z,15.00
2018-07-08T21:05:39.083Z,15.00
2018-07-08T21:08:10.638Z,14.90
2018-07-08T21:10:42.260Z,14.90
2018-07-08T21:13:14.705Z,14.90
2018-07-08T21:15:48.379Z,14.90
2018-07-08T21:18:20.667Z,14.90
2018-07-08T21:20:52.985Z,14.90
2018-07-08T21:23:25.375Z,14.90
2018-07-08T21:31:00.405Z,14.80
2018-07-08T21:33:32.438Z,14.70
2018-07-08T21:36:04.680Z,14.80
2018-07-08T21:38:38.391Z,14.80
2018-07-08T21:43:43.663Z,14.60
2018-07-08T21:46:15.724Z,14.50
2018-07-08T21:51:18.973Z,14.10
2018-07-08T21:53:51.278Z,13.80
2018-07-08T21:56:23.724Z,13.70
2018-07-08T21:58:55.641Z,13.60
2018-07-08T22:06:32.572Z,13.60
2018-07-08T22:11:38.901Z,13.80
2018-07-08T22:14:11.617Z,13.80
2018-07-08T22:16:44.314Z,13.70
2018-07-08T22:21:48.294Z,13.70
2018-07-08T22:24:20.104Z,13.70
2018-07-08T22:31:54.412Z,13.50
2018-07-08T22:34:26.424Z,13.50
2018-07-08T22:39:29.837Z,13.40
2018-07-08T22:42:02.190Z,13.40
2018-07-08T22:44:34.902Z,13.30
2018-07-08T22:49:39.200Z,13.20
2018-07-08T22:52:11.767Z,13.20
2018-07-08T22:57:17.474Z,13.20
2018-07-08T22:59:59.477Z,13.20
2018-07-08T23:02:45.609Z,13.10
2018-07-08T23:07:49.291Z,13.20
2018-07-08T23:10:22.096Z,13.20
2018-07-08T23:15:25.899Z,13.30
2018-07-08T23:17:57.922Z,13.30
2018-07-08T23:20:30.896Z,13.20
2018-07-08T23:23:04.101Z,13.20
2018-07-08T23:25:36.377Z,13.00
2018-07-08T23:28:09.107Z,12.90
2018-07-08T23:33:12.323Z,12.70
2018-07-08T23:35:44.823Z,12.80
2018-07-08T23:38:17.409Z,12.80
2018-07-08T23:40:49.268Z,12.80
2018-07-08T23:43:21.366Z,12.80
2018-07-08T23:45:53.446Z,12.80
2018-07-08T23:48:25.548Z,12.70
2018-07-08T23:50:57.761Z,12.70
2018-07-08T23:53:31.690Z,12.70
2018-07-08T23:56:05.830Z,12.70
2018-07-08T23:58:37.394Z,12.70
